KBTR

Baton Rouge Metropolitan, Ryan Field Airport

Baton Rouge, Louisiana, USA
METAR KBTR 140453Z 32010KT 6SM BR OVC009 03/01 A3036 RMK AO2 SLP281 T00330011
Observed Flight Rules
Nov-14 @ 04:53 UTC (33 minutes ago) Instrument Flight Rules
Wind Visibility Clouds Conditions
320° at 10 knots 6 miles
  • Overcast at 900' AGL
  • Mist
Temperatures Readings
Current 3°C / 37°F
Dewpoint 1°C / 34°F
Humidity 87%
Altimeter 30.36" Hg
Pressure 1028.1 hPa
Elevation 21
METAR KBTR 140453Z 32010KT 6SM BR OVC009 03/01 A3036 RMK AO2 SLP281 T00330011
Observed Flight Rules
Nov-14 @ 04:53 UTC
(33 minutes ago)
IFR
Wind Visibility
320° at 10 knots 6 miles
Clouds
  • Overcast at 900' AGL
Conditions
  • Mist
Temperature Dewpoint
3°C / 37°F 1°C / 34°F
Humidity Altimeter Pressure
87% 30.36" Hg 1028.1 hPa